Time;durP1;ratioP1;P1;durP2;ratioP2;P2;SDS_P1;SDS_P2;PMS_P1;PMS_P2;Temp;Humidity;BMP_temperature;BMP_pressure;BME280_temperature;BME280_humidity;BME280_pressure;Samples;Min_cycle;Max_cycle;Signal;HPM_P1;HPM_P2
2022/09/14 00:01:46;;;;;;;9.70;6.50;;;;;;;15.34;78.79;99098.78;5070937;28;20255;-81
2022/09/14 00:04:15;;;;;;;9.53;6.43;;;;;;;15.45;78.09;99096.44;5053544;28;20689;-81
2022/09/14 00:06:41;;;;;;;7.40;6.27;;;;;;;15.04;78.90;99060.78;5054016;28;20173;-81
2022/09/14 00:09:09;;;;;;;7.97;6.60;;;;;;;15.38;78.50;99096.31;5053694;28;20260;-81
2022/09/14 00:11:36;;;;;;;7.53;6.33;;;;;;;15.38;78.07;99095.47;5054334;28;20660;-82
2022/09/14 00:14:03;;;;;;;9.70;6.53;;;;;;;15.42;78.43;99104.03;5056544;28;20177;-81
2022/09/14 00:16:31;;;;;;;9.93;6.60;;;;;;;14.80;77.87;99001.66;5054261;28;20656;-82
2022/09/14 00:19:00;;;;;;;7.23;6.23;;;;;;;15.26;78.54;99096.09;5054157;28;20172;-82
2022/09/14 00:21:26;;;;;;;7.67;6.43;;;;;;;15.18;78.76;99110.38;5054728;28;20661;-81
2022/09/14 00:23:52;;;;;;;10.83;6.43;;;;;;;15.22;78.42;99108.72;5074236;28;20641;-82
2022/09/14 00:26:22;;;;;;;7.13;6.43;;;;;;;14.96;79.31;99094.59;5074347;28;20248;-81
2022/09/14 00:28:50;;;;;;;9.40;6.70;;;;;;;14.93;80.21;99112.38;5073867;28;20165;-81
2022/09/14 00:31:16;;;;;;;9.97;6.50;;;;;;;14.38;80.98;99032.16;5074012;28;20169;-83
2022/09/14 00:33:43;;;;;;;11.50;6.80;;;;;;;14.38;81.77;99042.34;5073013;28;20239;-83
2022/09/14 00:36:26;;;;;;;8.83;6.77;;;;;;;14.64;81.47;99084.53;5073697;28;20175;-83
2022/09/14 00:38:55;;;;;;;9.57;6.73;;;;;;;14.54;81.23;99090.28;5074166;28;20160;-82
2022/09/14 00:41:25;;;;;;;9.67;6.97;;;;;;;14.39;82.08;99053.41;5074369;28;20275;-82
2022/09/14 00:43:57;;;;;;;10.57;7.27;;;;;;;14.35;82.04;99055.00;5054323;28;20165;-82
2022/09/14 00:46:25;;;;;;;9.70;7.23;;;;;;;13.60;81.99;98942.91;5053828;28;20185;-82
2022/09/14 00:48:51;;;;;;;8.50;6.77;;;;;;;14.55;82.11;99098.78;5053756;28;20545;-82
2022/09/14 00:51:18;;;;;;;9.23;6.73;;;;;;;14.54;81.78;99099.59;5052823;28;20560;-81
2022/09/14 00:53:43;;;;;;;7.27;6.50;;;;;;;14.50;80.58;99072.34;5070564;28;20246;-81
2022/09/14 00:56:09;;;;;;;7.77;6.93;;;;;;;14.35;81.00;99047.38;5072675;28;20609;-82
2022/09/14 00:58:35;;;;;;;10.67;6.60;;;;;;;14.61;81.08;99091.28;5073166;28;20157;-82
2022/09/14 01:01:01;;;;;;;9.43;6.60;;;;;;;14.66;81.41;99099.88;5063919;28;20177;-83
2022/09/14 01:03:27;;;;;;;8.63;6.77;;;;;;;14.25;79.83;99004.69;5053723;28;20185;-82
2022/09/14 01:06:03;;;;;;;10.20;7.00;;;;;;;14.70;80.16;99089.78;5052988;28;20165;-82
2022/09/14 01:08:49;;;;;;;7.57;6.70;;;;;;;14.82;79.87;99112.13;5054377;28;20256;-83
2022/09/14 01:11:15;;;;;;;7.90;7.10;;;;;;;14.48;81.28;99113.03;5065772;28;20533;-83
2022/09/14 01:13:58;;;;;;;8.60;7.47;;;;;;;12.74;83.71;98863.59;5074785;28;20165;-81
2022/09/14 01:16:32;;;;;;;9.40;7.40;;;;;;;13.67;84.50;99027.00;5073866;28;20557;-82
2022/09/14 01:19:01;;;;;;;8.93;7.60;;;;;;;14.33;82.63;99105.06;5073728;28;20225;-81
2022/09/14 01:21:33;;;;;;;11.27;7.93;;;;;;;14.28;81.56;99065.00;5061430;28;20321;-82
2022/09/14 01:24:39;;;;;;;10.83;7.80;;;;;;;14.41;80.31;99080.63;5053510;28;20158;-82
2022/09/14 01:27:29;;;;;;;9.60;7.80;;;;;;;14.21;81.47;99104.72;5052977;28;20192;-81
2022/09/14 01:30:11;;;;;;;11.43;7.73;;;;;;;14.12;81.66;99094.31;5064359;28;20613;-82
2022/09/14 01:32:52;;;;;;;10.83;8.20;;;;;;;13.86;83.43;99080.94;5072580;28;20239;-81
2022/09/14 01:35:49;;;;;;;10.37;7.90;;;;;;;13.81;85.83;99097.78;5072559;28;20700;-81
2022/09/14 01:38:15;;;;;;;12.33;8.27;;;;;;;13.98;85.52;99093.13;5030444;28;20808;-81
2022/09/14 01:40:44;;;;;;;10.87;8.10;;;;;;;13.78;83.99;99040.88;5029182;28;20221;-81
2022/09/14 01:43:24;;;;;;;8.87;7.50;;;;;;;14.26;83.14;99102.28;5030711;28;20201;-81
2022/09/14 01:46:14;;;;;;;9.87;7.53;;;;;;;14.15;82.70;99067.25;5029955;28;20249;-81
2022/09/14 01:49:06;;;;;;;8.53;7.33;;;;;;;14.29;83.10;99092.16;5027145;28;20197;-81
2022/09/14 01:51:41;;;;;;;9.77;7.83;;;;;;;14.18;82.64;99071.53;5010788;28;20189;-81
2022/09/14 01:54:21;;;;;;;9.83;7.60;;;;;;;14.46;81.86;99101.09;5010529;28;20174;-81
2022/09/14 01:57:15;;;;;;;10.47;7.77;;;;;;;14.40;81.99;99080.59;5010637;28;20182;-81
2022/09/14 01:59:44;;;;;;;8.37;7.47;;;;;;;14.45;82.74;99102.78;5020176;28;20608;-81
2022/09/14 02:02:12;;;;;;;9.13;7.00;;;;;;;14.44;82.42;99093.44;5030551;28;20225;-82
2022/09/14 02:05:16;;;;;;;12.63;7.70;;;;;;;14.63;82.61;99107.44;5030328;28;20228;-83
2022/09/14 02:07:41;;;;;;;11.37;7.50;;;;;;;14.11;82.79;99029.81;4932425;29;20193;-83
2022/09/14 02:10:10;;;;;;;9.93;7.37;;;;;;;14.31;82.28;99083.72;4932518;29;20196;-81
2022/09/14 02:12:36;;;;;;;10.67;7.80;;;;;;;13.64;82.22;98958.25;4932846;29;20567;-81
2022/09/14 02:15:03;;;;;;;8.37;7.40;;;;;;;14.37;83.40;99091.56;4953953;28;20188;-81
2022/09/14 02:17:30;;;;;;;10.47;7.30;;;;;;;14.47;84.37;99116.44;4971157;28;20178;-81
2022/09/14 02:19:58;;;;;;;10.30;7.70;;;;;;;14.49;83.93;99114.78;4971052;28;20180;-81
2022/09/14 02:22:26;;;;;;;10.67;7.80;;;;;;;14.42;84.04;99118.00;4971589;28;20294;-82
2022/09/14 02:24:52;;;;;;;10.90;8.23;;;;;;;14.05;83.80;99046.63;4971430;28;20192;-82
2022/09/14 02:27:17;;;;;;;12.10;8.00;;;;;;;14.50;82.48;99119.03;4971456;28;20172;-82
2022/09/14 02:29:43;;;;;;;12.13;8.40;;;;;;;14.51;83.15;99123.31;4970925;28;20223;-81
2022/09/14 02:32:28;;;;;;;15.13;8.70;;;;;;;14.45;84.04;99123.16;4971233;28;20204;-81
2022/09/14 02:35:18;;;;;;;12.17;8.10;;;;;;;14.31;82.93;99129.56;4971288;28;20290;-81
2022/09/14 02:37:52;;;;;;;13.07;10.27;;;;;;;14.28;82.51;99126.97;4971226;28;20270;-81
2022/09/14 02:40:26;;;;;;;18.40;9.67;;;;;;;14.36;81.98;99135.69;4970952;28;20193;-82
2022/09/14 02:43:26;;;;;;;14.77;9.60;;;;;;;14.18;81.89;99100.41;4955577;28;20236;-82
2022/09/14 02:46:12;;;;;;;13.47;9.30;;;;;;;14.20;81.76;99103.00;5072249;28;20310;-83
2022/09/14 02:48:53;;;;;;;12.50;8.80;;;;;;;14.33;82.73;99130.53;5071675;28;20197;-84
2022/09/14 02:51:34;;;;;;;14.80;10.30;;;;;;;13.93;82.52;99061.59;5051946;28;20161;-82
2022/09/14 02:54:18;;;;;;;12.63;9.40;;;;;;;14.40;81.87;99136.59;5052208;28;20165;-82
2022/09/14 02:56:44;;;;;;;14.60;9.23;;;;;;;14.29;83.78;99128.69;5051937;28;20264;-81
2022/09/14 02:59:10;;;;;;;12.03;8.70;;;;;;;13.36;82.77;98988.06;5064645;28;20244;-81
2022/09/14 03:01:36;;;;;;;12.30;9.10;;;;;;;13.96;83.25;99104.94;5072084;28;20683;-81
2022/09/14 03:04:01;;;;;;;19.37;11.10;;;;;;;13.79;85.16;99121.47;5071732;28;20161;-81
2022/09/14 03:06:27;;;;;;;13.10;9.57;;;;;;;13.82;85.47;99129.16;5066943;28;20182;-81
2022/09/14 03:08:52;;;;;;;14.23;9.83;;;;;;;13.85;86.23;99114.84;5051595;28;20222;-81
2022/09/14 03:11:17;;;;;;;12.13;9.17;;;;;;;13.41;86.38;99060.25;5051283;28;20162;-81
2022/09/14 03:13:43;;;;;;;14.83;10.10;;;;;;;13.63;86.68;99094.75;5051374;28;20157;-80
2022/09/14 03:16:14;;;;;;;13.23;9.77;;;;;;;13.74;85.88;99120.47;5053201;28;20206;-81
2022/09/14 03:18:40;;;;;;;16.00;10.47;;;;;;;13.65;86.28;99116.00;5073158;28;20177;-80
2022/09/14 03:21:08;;;;;;;19.30;10.70;;;;;;;13.54;86.19;99102.97;5075053;28;20165;-80
2022/09/14 03:23:38;;;;;;;15.50;9.80;;;;;;;13.41;86.67;99094.97;5075049;28;20242;-80
2022/09/14 03:26:09;;;;;;;15.50;10.53;;;;;;;13.25;87.35;99055.56;5074075;28;20311;-80
2022/09/14 03:28:35;;;;;;;16.53;10.27;;;;;;;13.56;89.87;99100.50;5054913;28;20153;-81
2022/09/14 03:31:02;;;;;;;17.00;10.63;;;;;;;13.56;90.11;99118.31;5053973;28;20167;-81
2022/09/14 03:33:28;;;;;;;14.77;9.97;;;;;;;13.51;88.93;99122.41;5054549;28;20162;-81
2022/09/14 03:35:53;;;;;;;14.43;10.17;;;;;;;13.16;89.26;99049.38;5068076;28;20530;-80
2022/09/14 03:38:18;;;;;;;14.60;9.70;;;;;;;13.46;88.07;99104.47;5075333;28;20690;-81
2022/09/14 03:40:44;;;;;;;15.67;9.80;;;;;;;13.63;87.37;99115.09;5073800;28;20184;-80
2022/09/14 03:43:11;;;;;;;12.97;9.87;;;;;;;13.64;88.96;99123.59;5074359;28;20321;-80
2022/09/14 03:45:37;;;;;;;13.27;9.80;;;;;;;13.56;87.68;99128.47;5063562;28;20177;-81
2022/09/14 03:48:04;;;;;;;15.63;9.73;;;;;;;13.54;88.13;99105.53;5054743;28;20157;-81
2022/09/14 03:50:29;;;;;;;18.60;10.33;;;;;;;13.68;87.70;99122.88;5062105;28;20170;-82
2022/09/14 03:52:55;;;;;;;15.10;9.73;;;;;;;13.63;87.88;99126.94;5054554;28;20157;-81
2022/09/14 03:55:20;;;;;;;18.67;11.33;;;;;;;13.36;87.31;99087.25;5062567;28;20632;-82
2022/09/14 03:57:46;;;;;;;19.30;11.33;;;;;;;13.63;87.73;99126.94;5094466;28;20183;-82
2022/09/14 04:00:11;;;;;;;17.00;10.77;;;;;;;13.59;87.08;99137.06;5087174;28;20164;-81
2022/09/14 04:02:38;;;;;;;19.23;10.53;;;;;;;13.49;87.56;99132.50;5086688;28;20280;-79
2022/09/14 04:05:03;;;;;;;17.70;10.40;;;;;;;13.41;88.10;99115.31;5077022;28;20649;-80
2022/09/14 04:07:29;;;;;;;21.13;12.80;;;;;;;13.09;87.51;99058.50;5055747;28;20192;-81
2022/09/14 04:09:55;;;;;;;17.90;11.10;;;;;;;13.43;87.17;99139.97;5055316;28;20158;-82
2022/09/14 04:12:20;;;;;;;18.13;11.10;;;;;;;13.45;87.67;99140.91;5052917;28;20197;-82
2022/09/14 04:14:46;;;;;;;20.03;11.10;;;;;;;13.52;88.36;99135.16;5056208;28;20196;-82
2022/09/14 04:17:11;;;;;;;17.13;10.60;;;;;;;13.57;89.05;99131.03;5047093;28;20430;-80
2022/09/14 04:19:37;;;;;;;17.93;10.90;;;;;;;12.85;88.69;99018.00;5064752;28;20220;-81
2022/09/14 04:22:03;;;;;;;18.50;10.67;;;;;;;12.96;89.26;99043.72;5070632;28;20297;-82
2022/09/14 04:24:29;;;;;;;20.33;11.17;;;;;;;13.45;88.36;99119.69;5069548;28;20631;-80
2022/09/14 04:26:54;;;;;;;20.60;11.37;;;;;;;13.33;89.09;99092.22;5070808;28;20309;-83
2022/09/14 04:29:19;;;;;;;16.30;10.90;;;;;;;13.72;87.55;99132.28;5070885;28;20180;-80
2022/09/14 04:31:45;;;;;;;17.47;10.40;;;;;;;13.65;86.76;99126.19;5066204;28;20688;-81
2022/09/14 04:34:12;;;;;;;18.23;10.13;;;;;;;13.58;87.38;99137.00;5047156;28;20288;-83
2022/09/14 04:36:38;;;;;;;18.83;11.07;;;;;;;13.81;86.82;99132.53;5068416;28;20347;-82
2022/09/14 04:39:03;;;;;;;18.97;11.00;;;;;;;13.79;85.67;99113.84;5059718;28;20798;-80
2022/09/14 04:41:30;;;;;;;21.00;10.60;;;;;;;13.90;84.01;99114.97;5070756;28;20223;-80
2022/09/14 04:43:58;;;;;;;16.73;9.20;;;;;;;13.83;84.07;99128.34;5071846;28;20201;-80
2022/09/14 04:46:34;;;;;;;14.53;9.07;;;;;;;13.88;84.32;99132.72;5070003;28;20265;-80
2022/09/14 04:49:00;;;;;;;13.07;8.60;;;;;;;13.63;84.53;99115.09;5071873;28;20938;-82
2022/09/14 04:51:28;;;;;;;11.33;8.90;;;;;;;13.92;84.12;99136.22;5070153;28;20191;-81
2022/09/14 04:53:55;;;;;;;14.07;9.40;;;;;;;14.08;82.85;99139.22;5070456;28;20216;-80
2022/09/14 04:56:22;;;;;;;12.57;8.37;;;;;;;13.98;83.37;99138.94;5040054;28;20226;-80
2022/09/14 04:58:54;;;;;;;12.30;8.57;;;;;;;13.78;83.87;99142.63;5045565;28;20240;-82
2022/09/14 05:01:25;;;;;;;16.07;9.27;;;;;;;13.89;84.42;99139.56;5082392;28;20200;-81
2022/09/14 05:03:54;;;;;;;14.57;8.73;;;;;;;14.12;83.11;99142.66;5066627;28;20188;-81
2022/09/14 05:06:21;;;;;;;14.53;8.97;;;;;;;13.79;82.26;99045.97;5067107;28;20191;-81
2022/09/14 05:08:48;;;;;;;15.93;8.97;;;;;;;14.37;81.53;99122.13;5068442;28;20321;-81
2022/09/14 05:11:17;;;;;;;11.17;8.33;;;;;;;14.18;81.23;99109.72;5069340;28;20181;-80
2022/09/14 05:13:43;;;;;;;12.17;8.00;;;;;;;14.29;81.61;99112.53;5068911;28;20207;-81
2022/09/14 05:16:20;;;;;;;13.17;8.50;;;;;;;14.63;80.56;99138.91;5069203;28;20188;-80
2022/09/14 05:18:46;;;;;;;13.47;8.60;;;;;;;14.29;82.03;99131.22;5050776;28;20868;-81
2022/09/14 05:21:15;;;;;;;14.13;8.50;;;;;;;14.25;83.53;99137.09;5061039;28;20202;-80
2022/09/14 05:23:41;;;;;;;12.30;8.90;;;;;;;14.34;82.50;99131.41;5052509;28;20613;-80
2022/09/14 05:26:06;;;;;;;11.57;8.43;;;;;;;14.64;81.14;99153.34;5061889;28;20678;-80
2022/09/14 05:28:33;;;;;;;13.33;8.97;;;;;;;14.83;80.07;99147.00;5066030;28;20189;-82
2022/09/14 05:31:03;;;;;;;16.50;9.37;;;;;;;15.16;78.67;99150.25;5059155;28;20650;-80
2022/09/14 05:33:28;;;;;;;11.57;8.87;;;;;;;15.23;77.00;99147.03;5056473;28;20731;-80
2022/09/14 05:35:59;;;;;;;14.00;9.17;;;;;;;15.42;76.32;99152.50;5063606;28;20201;-80
2022/09/14 05:38:28;;;;;;;12.23;9.07;;;;;;;15.48;75.04;99133.13;5067201;28;20234;-80
2022/09/14 05:40:54;;;;;;;13.80;9.67;;;;;;;15.70;74.08;99149.69;5058591;28;20188;-81
2022/09/14 05:43:21;;;;;;;14.67;9.70;;;;;;;15.70;74.63;99152.25;5047538;28;20744;-80
2022/09/14 05:45:47;;;;;;;13.60;9.07;;;;;;;15.80;74.08;99157.56;5047597;28;20818;-81
2022/09/14 05:48:13;;;;;;;22.77;9.87;;;;;;;15.77;72.76;99116.66;5064865;28;20189;-81
2022/09/14 05:50:38;;;;;;;13.03;8.20;;;;;;;15.76;73.45;99132.81;5058458;28;20182;-80
2022/09/14 05:53:04;;;;;;;13.50;8.97;;;;;;;15.94;73.74;99153.56;5053305;28;20273;-80
2022/09/14 05:55:29;;;;;;;11.43;8.50;;;;;;;16.29;72.19;99149.06;5058361;28;20606;-80
2022/09/14 05:57:55;;;;;;;12.10;7.53;;;;;;;15.72;71.60;99074.88;5057039;28;20195;-80
2022/09/14 06:00:21;;;;;;;11.00;8.30;;;;;;;16.50;70.15;99143.47;5046464;28;20305;-80
2022/09/14 06:02:48;;;;;;;12.30;8.00;;;;;;;16.41;69.22;99113.53;5049978;28;20209;-80
2022/09/14 06:05:14;;;;;;;12.20;7.73;;;;;;;16.86;68.80;99150.88;5064068;28;20625;-80
2022/09/14 06:07:39;;;;;;;8.90;7.40;;;;;;;16.95;65.87;99151.84;5067036;28;20208;-80
2022/09/14 06:10:05;;;;;;;11.43;7.57;;;;;;;16.92;66.97;99159.47;5066260;28;20185;-80
2022/09/14 06:12:31;;;;;;;11.33;7.60;;;;;;;16.93;66.75;99138.19;5062062;28;20189;-79
2022/09/14 06:14:56;;;;;;;9.63;7.13;;;;;;;16.94;64.54;99099.00;5061678;28;20196;-79
2022/09/14 06:17:21;;;;;;;10.90;6.87;;;;;;;17.76;62.95;99166.59;5063338;28;20192;-79
2022/09/14 06:19:47;;;;;;;11.33;6.87;;;;;;;17.86;60.91;99137.66;5066066;28;20668;-79
2022/09/14 06:22:12;;;;;;;8.77;6.77;;;;;;;17.91;60.93;99176.16;5046564;28;20204;-79
2022/09/14 06:24:38;;;;;;;10.23;6.50;;;;;;;17.81;60.12;99152.13;5037526;28;20248;-79
2022/09/14 06:27:03;;;;;;;10.60;6.03;;;;;;;18.39;58.47;99184.31;5050315;28;20245;-80
2022/09/14 06:29:29;;;;;;;8.83;5.80;;;;;;;18.27;56.49;99173.94;5065709;28;20180;-79
2022/09/14 06:31:54;;;;;;;9.77;6.03;;;;;;;18.37;55.29;99145.00;5048426;28;20189;-79
2022/09/14 06:34:20;;;;;;;8.40;5.80;;;;;;;18.69;54.78;99158.97;5051813;28;20646;-80
2022/09/14 06:36:45;;;;;;;8.33;5.90;;;;;;;19.23;53.21;99173.84;5064589;28;20195;-81
2022/09/14 06:39:11;;;;;;;9.23;6.10;;;;;;;19.39;52.19;99144.00;5063813;28;20711;-80
2022/09/14 06:41:36;;;;;;;9.53;6.10;;;;;;;19.69;51.50;99172.38;5081614;28;20985;-81
2022/09/14 06:44:02;;;;;;;7.20;6.00;;;;;;;19.68;50.89;99162.09;5065558;28;21081;-80
2022/09/14 06:46:30;;;;;;;8.30;6.20;;;;;;;19.99;50.23;99153.63;5062943;28;20180;-80
2022/09/14 06:48:59;;;;;;;19.70;14.53;;;;;;;20.27;49.36;99175.97;5067536;28;20191;-80
2022/09/14 06:51:34;;;;;;;10.90;7.63;;;;;;;19.95;49.32;99113.34;5051501;28;20190;-80
2022/09/14 06:54:00;;;;;;;12.33;9.20;;;;;;;20.36;49.12;99170.84;5056516;28;20184;-80
2022/09/14 06:56:29;;;;;;;21.13;12.37;;;;;;;20.70;49.17;99182.00;5052755;28;20260;-80
2022/09/14 06:58:56;;;;;;;13.50;9.23;;;;;;;20.05;48.26;99061.13;5066024;28;20267;-80
2022/09/14 07:01:22;;;;;;;13.10;8.70;;;;;;;21.04;48.16;99172.53;5048315;28;20221;-81
2022/09/14 07:03:50;;;;;;;10.10;7.03;;;;;;;21.14;48.07;99159.66;5052930;28;20177;-80
2022/09/14 07:06:21;;;;;;;8.90;6.40;;;;;;;21.44;47.74;99189.63;5052891;28;20185;-80
2022/09/14 07:08:47;;;;;;;9.27;6.00;;;;;;;21.35;47.34;99169.03;5063519;28;20187;-80
2022/09/14 07:11:16;;;;;;;10.57;5.67;;;;;;;21.64;47.06;99185.25;5057179;28;20689;-80
2022/09/14 07:13:42;;;;;;;8.63;5.50;;;;;;;21.38;47.12;99183.63;5052257;28;20177;-80
2022/09/14 07:16:07;;;;;;;10.43;5.77;;;;;;;21.83;46.91;99183.47;5051504;28;20212;-80
2022/09/14 07:18:34;;;;;;;8.47;5.53;;;;;;;21.68;46.37;99127.69;5062067;28;20185;-81
2022/09/14 07:21:15;;;;;;;22.47;6.40;;;;;;;22.20;46.70;99166.06;5059685;28;20234;-80
2022/09/14 07:23:42;;;;;;;9.07;6.00;;;;;;;21.75;48.41;99141.41;5052282;28;20188;-80
2022/09/14 07:26:09;;;;;;;10.50;5.70;;;;;;;21.89;47.91;99174.88;5064108;28;20653;-80
2022/09/14 07:28:36;;;;;;;11.37;6.10;;;;;;;22.13;46.99;99141.19;5069045;28;20234;-80
2022/09/14 07:31:03;;;;;;;11.30;5.93;;;;;;;22.72;46.32;99175.16;5057631;28;20181;-80
2022/09/14 07:33:29;;;;;;;9.23;6.13;;;;;;;22.62;45.93;99090.06;5072637;28;20236;-79
2022/09/14 07:36:04;;;;;;;10.73;6.20;;;;;;;23.24;45.05;99167.75;5076360;28;20648;-80
2022/09/14 07:38:29;;;;;;;7.67;5.47;;;;;;;23.13;44.95;99151.53;5071834;28;20209;-81
2022/09/14 07:40:58;;;;;;;11.10;5.97;;;;;;;22.64;46.96;99161.47;5069987;28;20681;-80
2022/09/14 07:43:23;;;;;;;13.73;6.00;;;;;;;22.80;46.16;99159.59;5051808;28;20216;-81
2022/09/14 07:45:49;;;;;;;12.27;5.63;;;;;;;22.65;45.25;99158.03;5051209;28;20224;-80
2022/09/14 07:48:14;;;;;;;7.93;5.30;;;;;;;22.97;41.87;99149.97;5063902;28;20216;-81
2022/09/14 07:50:40;;;;;;;4.83;4.10;;;;;;;21.86;41.72;99118.16;5062463;28;20220;-81
2022/09/14 07:53:05;;;;;;;5.17;4.20;;;;;;;22.56;41.95;99157.19;5066484;28;20637;-80
2022/09/14 07:55:31;;;;;;;6.03;4.70;;;;;;;23.23;40.74;99153.16;5070931;28;20193;-81
2022/09/14 07:57:56;;;;;;;6.53;4.00;;;;;;;22.96;40.19;99126.75;5066163;28;20185;-80
2022/09/14 08:00:22;;;;;;;4.50;3.80;;;;;;;23.28;39.75;99102.28;5041106;28;20237;-81
2022/09/14 08:02:52;;;;;;;6.27;4.20;;;;;;;23.77;38.41;99112.00;5053254;28;20200;-81
2022/09/14 08:05:18;;;;;;;5.23;4.00;;;;;;;24.47;38.04;99150.66;5063704;28;20189;-80
2022/09/14 08:07:44;;;;;;;4.60;4.10;;;;;;;24.71;38.12;99157.16;5053677;28;20192;-80
2022/09/14 08:10:09;;;;;;;6.93;5.03;;;;;;;24.40;37.90;99136.09;5069943;28;20169;-81
2022/09/14 08:12:35;;;;;;;9.53;5.03;;;;;;;24.22;38.00;99159.66;5060052;28;20660;-81
2022/09/14 08:15:00;;;;;;;13.53;5.30;;;;;;;24.15;38.28;99127.00;5078685;28;20217;-81
2022/09/14 08:17:25;;;;;;;8.33;5.27;;;;;;;24.76;37.44;99163.97;5085321;28;20172;-81
2022/09/14 08:19:51;;;;;;;8.30;4.80;;;;;;;24.89;36.76;99116.25;5078657;28;20183;-81
2022/09/14 08:22:17;;;;;;;9.47;4.40;;;;;;;25.37;36.71;99165.47;5062271;28;20206;-80
2022/09/14 08:24:42;;;;;;;4.67;4.27;;;;;;;25.42;36.98;99159.31;5079699;28;20183;-81
2022/09/14 08:27:10;;;;;;;7.20;4.00;;;;;;;25.70;37.05;99138.88;5082207;28;20262;-81
2022/09/14 08:29:35;;;;;;;7.23;5.00;;;;;;;25.77;36.15;99125.72;5077503;28;20180;-81
2022/09/14 08:32:01;;;;;;;9.97;5.17;;;;;;;26.08;36.22;99154.44;5087788;28;20319;-81
2022/09/14 08:34:27;;;;;;;8.93;6.00;;;;;;;26.46;36.18;99160.50;5085804;28;20226;-81
2022/09/14 08:36:52;;;;;;;5.60;5.00;;;;;;;26.64;35.00;99155.75;5079170;28;20184;-80
2022/09/14 08:39:19;;;;;;;6.33;4.53;;;;;;;26.49;34.48;99160.44;5075676;28;20181;-80
2022/09/14 08:41:44;;;;;;;6.50;4.60;;;;;;;26.57;34.59;99158.50;5086911;28;20354;-81
2022/09/14 08:44:17;;;;;;;6.35;4.95;;;;;;;26.60;34.58;99103.88;5078689;28;20750;-81
2022/09/14 08:46:50;;;;;;;10.48;5.80;;;;;;;27.33;34.41;99147.00;5061485;28;20247;-80
2022/09/14 08:49:46;;;;;;;7.05;6.15;;;;;;;27.68;33.51;99153.81;5088244;28;20200;-81
2022/09/14 08:52:30;;;;;;;6.05;5.45;;;;;;;27.62;33.41;99133.19;5067520;28;20186;-79
2022/09/14 08:54:58;;;;;;;8.90;5.30;;;;;;;27.88;33.52;99141.09;5079192;28;20187;-80
2022/09/14 08:57:33;;;;;;;7.30;5.00;;;;;;;28.10;33.19;99144.75;5089639;28;20184;-80
2022/09/14 09:00:07;;;;;;;6.18;5.13;;;;;;;27.58;33.54;99139.38;5076841;28;20196;-80
2022/09/14 09:02:55;;;;;;;7.35;4.80;;;;;;;27.73;33.13;99134.56;5052788;28;20266;-80
2022/09/14 09:05:30;;;;;;;7.00;4.43;;;;;;;28.12;33.10;99131.69;5088096;28;20183;-80
2022/09/14 09:08:02;;;;;;;4.32;3.65;;;;;;;27.87;32.97;99137.63;5090014;28;20611;-80
2022/09/14 09:10:29;;;;;;;4.85;3.95;;;;;;;27.34;33.58;99109.69;5065841;28;20682;-80
2022/09/14 09:12:57;;;;;;;6.43;4.05;;;;;;;27.25;33.18;99004.22;5051922;28;20698;-80
2022/09/14 09:15:27;;;;;;;4.20;3.80;;;;;;;28.38;31.99;99129.09;5060095;28;20271;-81
2022/09/14 09:18:31;;;;;;;6.53;3.60;;;;;;;28.16;32.09;99126.31;5085459;28;20188;-81
2022/09/14 09:21:03;;;;;;;6.45;4.10;;;;;;;27.75;33.12;99088.53;5079208;28;20181;-80
2022/09/14 09:23:32;;;;;;;4.53;3.45;;;;;;;27.47;32.62;99083.31;5058979;28;20187;-80
2022/09/14 09:26:13;;;;;;;5.78;3.60;;;;;;;28.09;32.38;99117.00;5079642;28;20234;-80
2022/09/14 09:28:47;;;;;;;5.40;3.70;;;;;;;27.09;33.42;99117.31;5082244;28;20248;-80
2022/09/14 09:31:14;;;;;;;6.32;3.47;;;;;;;27.91;32.76;99112.34;5062792;28;20238;-80
2022/09/14 09:33:39;;;;;;;8.30;3.50;;;;;;;27.07;31.98;98981.38;5068124;28;20220;-80
2022/09/14 09:36:07;;;;;;;5.72;3.67;;;;;;;28.28;31.72;99093.84;5080017;28;20280;-80
2022/09/14 09:38:33;;;;;;;4.18;3.35;;;;;;;27.87;32.03;99030.06;5082142;28;20617;-81
2022/09/14 09:41:04;;;;;;;5.60;3.85;;;;;;;27.89;32.49;99099.38;5063945;28;20279;-80
2022/09/14 09:43:29;;;;;;;3.97;3.17;;;;;;;27.92;31.60;98974.38;5073560;28;20235;-80
2022/09/14 09:46:00;;;;;;;4.47;3.50;;;;;;;28.66;31.72;99086.47;5072481;28;20230;-80
2022/09/14 09:48:42;;;;;;;6.25;3.95;;;;;;;28.71;31.75;99093.28;5078734;28;20682;-80
2022/09/14 09:51:23;;;;;;;4.38;3.38;;;;;;;28.39;32.00;99090.00;5073810;28;20282;-81
2022/09/14 09:54:11;;;;;;;4.03;3.30;;;;;;;28.73;31.17;99087.13;5059223;28;20183;-80
2022/09/14 09:56:52;;;;;;;4.68;3.30;;;;;;;28.59;31.41;99074.56;5039850;28;20199;-81
2022/09/14 09:59:34;;;;;;;5.13;3.53;;;;;;;28.70;31.28;99086.38;4996108;28;20283;-80
2022/09/14 10:02:20;;;;;;;8.68;3.30;;;;;;;28.81;31.44;99084.25;5012315;28;20231;-80
2022/09/14 10:04:58;;;;;;;4.07;3.22;;;;;;;28.80;31.95;99082.53;5032354;28;20184;-81
2022/09/14 10:07:24;;;;;;;7.93;4.55;;;;;;;28.76;31.57;99081.78;5043826;28;20198;-80
2022/09/14 10:10:00;;;;;;;5.75;3.75;;;;;;;28.58;31.67;98984.25;5034121;28;20175;-81
2022/09/14 10:12:26;;;;;;;5.40;3.00;;;;;;;28.31;31.96;99058.13;5035748;28;20211;-81
2022/09/14 10:15:12;;;;;;;5.85;3.35;;;;;;;27.85;32.43;99050.09;5027503;28;20284;-80
2022/09/14 10:17:37;;;;;;;3.08;2.78;;;;;;;27.04;33.42;99029.97;5028500;28;20191;-81
2022/09/14 10:20:04;;;;;;;3.10;2.80;;;;;;;27.13;33.57;99079.97;5035656;28;20197;-81
2022/09/14 10:22:34;;;;;;;3.40;2.90;;;;;;;27.11;33.29;99073.09;5033853;28;20221;-80
2022/09/14 10:25:22;;;;;;;5.85;3.55;;;;;;;27.81;32.25;99045.88;5026861;28;20270;-81
2022/09/14 10:27:57;;;;;;;6.95;3.30;;;;;;;28.22;32.37;99061.03;5019909;28;20200;-79
2022/09/14 10:30:26;;;;;;;4.18;3.00;;;;;;;28.27;31.71;99047.84;5039041;28;20185;-80
2022/09/14 10:32:58;;;;;;;4.15;3.00;;;;;;;28.38;31.68;99070.03;5036939;28;20719;-80
2022/09/14 10:35:39;;;;;;;5.30;3.05;;;;;;;28.58;31.55;99070.22;5063160;28;20305;-80
2022/09/14 10:38:11;;;;;;;5.25;2.95;;;;;;;28.60;31.02;99064.94;5093725;28;20183;-81
2022/09/14 10:40:42;;;;;;;4.28;2.80;;;;;;;27.98;32.11;99023.63;5093452;28;20667;-81
2022/09/14 10:43:14;;;;;;;3.85;3.08;;;;;;;28.37;32.23;99065.75;5093174;28;20784;-81
2022/09/14 10:45:49;;;;;;;4.03;3.22;;;;;;;28.23;31.88;99039.31;5078125;28;20186;-81
2022/09/14 10:48:21;;;;;;;8.95;6.43;;;;;;;28.49;31.79;99056.66;5093090;28;20187;-81
2022/09/14 10:51:03;;;;;;;5.90;3.20;;;;;;;28.41;31.48;99053.47;5090654;28;20317;-80
2022/09/14 10:53:53;;;;;;;5.28;3.72;;;;;;;28.03;32.24;99050.38;5060295;28;20256;-81
2022/09/14 10:56:25;;;;;;;5.38;3.28;;;;;;;28.36;31.30;99047.56;5084254;28;20271;-81
2022/09/14 10:59:12;;;;;;;7.30;3.40;;;;;;;28.62;31.22;99043.19;5093180;28;20238;-81
2022/09/14 11:02:10;;;;;;;5.68;3.90;;;;;;;28.29;31.46;99046.94;5049802;28;20230;-81
2022/09/14 11:05:29;;;;;;;4.55;2.83;;;;;;;28.17;31.62;99033.47;5080643;28;20187;-81
2022/09/14 11:08:10;;;;;;;6.95;4.47;;;;;;;28.74;31.48;99028.88;5029858;28;20281;-81
2022/09/14 11:10:56;;;;;;;4.20;3.10;;;;;;;28.45;31.35;99024.66;5030186;28;20257;-81
2022/09/14 11:13:52;;;;;;;7.57;3.20;;;;;;;28.57;31.45;99025.97;5030600;28;20199;-81
2022/09/14 11:16:46;;;;;;;4.38;3.00;;;;;;;28.42;32.17;99024.78;5049774;28;20226;-81
2022/09/14 11:19:56;;;;;;;8.02;3.67;;;;;;;28.72;31.86;99027.22;5033599;28;20196;-81
2022/09/14 11:22:24;;;;;;;5.20;3.10;;;;;;;28.62;31.45;99019.72;4990229;28;20253;-81
2022/09/14 11:24:54;;;;;;;3.80;2.97;;;;;;;28.22;31.13;98919.59;4990471;28;20264;-81
2022/09/14 11:27:34;;;;;;;8.90;3.83;;;;;;;28.56;30.87;99014.72;4996091;28;20226;-82
2022/09/14 11:30:04;;;;;;;3.92;2.88;;;;;;;28.55;30.80;98973.94;4987883;28;20290;-81
2022/09/14 11:32:30;;;;;;;5.60;3.90;;;;;;;28.92;30.73;99004.78;4988063;28;20758;-82
2022/09/14 11:35:33;;;;;;;10.65;4.93;;;;;;;28.62;30.56;98985.88;4987815;28;20405;-81
2022/09/14 11:38:05;;;;;;;3.30;3.00;;;;;;;28.79;30.81;98958.38;4988600;28;20194;-80
2022/09/14 11:40:49;;;;;;;4.45;3.40;;;;;;;29.37;30.16;98990.91;4990181;28;20189;-80
2022/09/14 11:43:20;;;;;;;5.50;2.97;;;;;;;29.53;29.93;98939.88;4996527;28;20227;-81
2022/09/14 11:45:50;;;;;;;3.17;2.88;;;;;;;29.94;28.94;98985.19;5006638;28;20821;-80
2022/09/14 11:48:31;;;;;;;3.72;2.90;;;;;;;30.11;28.51;98991.38;5007466;28;20185;-81